sensor_id;sensor_type;location;lat;lon;timestamp;pressure;altitude;pressure_sealevel;temperature;humidity
26487;BME280;14425;56.136;40.360;2023-02-28T00:01:22;99796.41;;;-6.04;76.54
26487;BME280;14425;56.136;40.360;2023-02-28T00:03:48;99774.69;;;-5.28;73.36
26487;BME280;14425;56.136;40.360;2023-02-28T00:06:14;99763.50;;;-4.88;70.73
26487;BME280;14425;56.136;40.360;2023-02-28T00:08:39;99769.00;;;-4.83;71.26
26487;BME280;14425;56.136;40.360;2023-02-28T00:11:08;99762.06;;;-5.36;71.66
26487;BME280;14425;56.136;40.360;2023-02-28T00:13:36;99759.81;;;-4.65;71.69
26487;BME280;14425;56.136;40.360;2023-02-28T00:16:05;99756.38;;;-5.01;71.55
26487;BME280;14425;56.136;40.360;2023-02-28T00:18:31;99759.38;;;-4.87;71.65
26487;BME280;14425;56.136;40.360;2023-02-28T00:20:57;99760.56;;;-5.43;70.53
26487;BME280;14425;56.136;40.360;2023-02-28T00:23:23;99756.53;;;-5.08;73.26
26487;BME280;14425;56.136;40.360;2023-02-28T00:25:48;99753.72;;;-5.62;75.34
26487;BME280;14425;56.136;40.360;2023-02-28T00:28:14;99747.84;;;-5.53;75.76
26487;BME280;14425;56.136;40.360;2023-02-28T00:30:39;99745.44;;;-4.84;72.28
26487;BME280;14425;56.136;40.360;2023-02-28T00:33:05;99732.41;;;-5.14;72.07
26487;BME280;14425;56.136;40.360;2023-02-28T00:35:30;99744.94;;;-5.23;72.93
26487;BME280;14425;56.136;40.360;2023-02-28T00:37:56;99736.97;;;-5.28;74.19
26487;BME280;14425;56.136;40.360;2023-02-28T00:40:21;99730.47;;;-5.26;75.13
26487;BME280;14425;56.136;40.360;2023-02-28T00:42:47;99732.75;;;-5.96;75.42
26487;BME280;14425;56.136;40.360;2023-02-28T00:45:12;99730.84;;;-5.47;74.72
26487;BME280;14425;56.136;40.360;2023-02-28T00:47:38;99703.13;;;-5.14;75.45
26487;BME280;14425;56.136;40.360;2023-02-28T00:50:04;99700.63;;;-4.88;71.17
26487;BME280;14425;56.136;40.360;2023-02-28T00:52:30;99696.44;;;-5.31;73.18
26487;BME280;14425;56.136;40.360;2023-02-28T00:54:56;99696.22;;;-5.59;75.23
26487;BME280;14425;56.136;40.360;2023-02-28T00:57:21;99673.44;;;-5.69;75.27
26487;BME280;14425;56.136;40.360;2023-02-28T00:59:47;99682.00;;;-5.76;74.93
26487;BME280;14425;56.136;40.360;2023-02-28T01:02:12;99659.25;;;-5.60;75.58
26487;BME280;14425;56.136;40.360;2023-02-28T01:04:38;99651.34;;;-4.94;72.59
26487;BME280;14425;56.136;40.360;2023-02-28T01:07:03;99663.19;;;-5.02;70.73
26487;BME280;14425;56.136;40.360;2023-02-28T01:09:29;99675.81;;;-5.62;71.55
26487;BME280;14425;56.136;40.360;2023-02-28T01:11:55;99647.94;;;-5.89;76.44
26487;BME280;14425;56.136;40.360;2023-02-28T01:14:20;99648.56;;;-5.92;74.67
26487;BME280;14425;56.136;40.360;2023-02-28T01:16:45;99651.34;;;-6.06;75.07
26487;BME280;14425;56.136;40.360;2023-02-28T01:19:11;99638.47;;;-5.24;73.76
26487;BME280;14425;56.136;40.360;2023-02-28T01:21:37;99630.97;;;-5.92;74.37
26487;BME280;14425;56.136;40.360;2023-02-28T01:24:03;99628.25;;;-5.51;73.58
26487;BME280;14425;56.136;40.360;2023-02-28T01:26:29;99651.34;;;-6.40;76.70
26487;BME280;14425;56.136;40.360;2023-02-28T01:28:55;99644.41;;;-6.09;77.65
26487;BME280;14425;56.136;40.360;2023-02-28T01:31:21;99648.84;;;-6.31;80.05
26487;BME280;14425;56.136;40.360;2023-02-28T01:33:48;99635.03;;;-7.01;82.45
26487;BME280;14425;56.136;40.360;2023-02-28T01:36:16;99631.50;;;-6.79;86.76
26487;BME280;14425;56.136;40.360;2023-02-28T01:38:42;99631.19;;;-6.57;81.96
26487;BME280;14425;56.136;40.360;2023-02-28T01:41:08;99635.19;;;-7.16;86.58
26487;BME280;14425;56.136;40.360;2023-02-28T01:46:08;99607.34;;;-5.94;79.24
26487;BME280;14425;56.136;40.360;2023-02-28T01:48:40;99596.59;;;-5.84;78.62
26487;BME280;14425;56.136;40.360;2023-02-28T01:51:15;99623.56;;;-6.41;80.80
26487;BME280;14425;56.136;40.360;2023-02-28T01:53:46;99613.25;;;-6.94;86.15
26487;BME280;14425;56.136;40.360;2023-02-28T01:56:13;99599.16;;;-6.18;84.19
26487;BME280;14425;56.136;40.360;2023-02-28T01:58:49;99602.41;;;-6.27;81.64
26487;BME280;14425;56.136;40.360;2023-02-28T02:01:17;99596.09;;;-6.06;81.04
26487;BME280;14425;56.136;40.360;2023-02-28T02:03:45;99584.38;;;-6.23;81.74
26487;BME280;14425;56.136;40.360;2023-02-28T02:06:11;99570.72;;;-5.75;78.88
26487;BME280;14425;56.136;40.360;2023-02-28T02:08:36;99593.47;;;-5.99;78.36
26487;BME280;14425;56.136;40.360;2023-02-28T02:11:02;99583.44;;;-6.33;81.91
26487;BME280;14425;56.136;40.360;2023-02-28T02:19:02;99554.91;;;-5.65;76.78
26487;BME280;14425;56.136;40.360;2023-02-28T02:22:01;99559.03;;;-5.91;77.40
26487;BME280;14425;56.136;40.360;2023-02-28T02:27:22;99567.16;;;-7.03;81.84
26487;BME280;14425;56.136;40.360;2023-02-28T02:37:39;99541.22;;;-6.45;83.56
26487;BME280;14425;56.136;40.360;2023-02-28T02:40:28;99533.22;;;-7.08;84.61
26487;BME280;14425;56.136;40.360;2023-02-28T02:43:04;99529.94;;;-5.98;79.94
26487;BME280;14425;56.136;40.360;2023-02-28T02:45:54;99518.94;;;-6.34;79.48
26487;BME280;14425;56.136;40.360;2023-02-28T02:48:25;99531.69;;;-6.15;79.08
26487;BME280;14425;56.136;40.360;2023-02-28T02:51:01;99517.69;;;-6.55;78.29
26487;BME280;14425;56.136;40.360;2023-02-28T02:53:35;99531.47;;;-6.76;83.37
26487;BME280;14425;56.136;40.360;2023-02-28T02:56:03;99513.44;;;-6.47;82.17
26487;BME280;14425;56.136;40.360;2023-02-28T02:58:33;99514.47;;;-7.36;87.05
26487;BME280;14425;56.136;40.360;2023-02-28T03:01:01;99491.81;;;-6.62;84.01
26487;BME280;14425;56.136;40.360;2023-02-28T03:03:32;99479.91;;;-6.56;83.29
26487;BME280;14425;56.136;40.360;2023-02-28T03:06:00;99515.38;;;-7.11;84.06
26487;BME280;14425;56.136;40.360;2023-02-28T03:08:27;99486.44;;;-6.83;81.97
26487;BME280;14425;56.136;40.360;2023-02-28T03:11:01;99483.78;;;-6.84;87.18
26487;BME280;14425;56.136;40.360;2023-02-28T03:22:02;99462.53;;;-6.88;86.48
26487;BME280;14425;56.136;40.360;2023-02-28T03:24:34;99471.19;;;-7.51;92.08
26487;BME280;14425;56.136;40.360;2023-02-28T03:27:15;99453.31;;;-7.14;90.60
26487;BME280;14425;56.136;40.360;2023-02-28T03:29:48;99448.91;;;-6.99;85.76
26487;BME280;14425;56.136;40.360;2023-02-28T03:32:24;99436.59;;;-6.89;85.46
26487;BME280;14425;56.136;40.360;2023-02-28T03:35:26;99413.97;;;-6.46;84.22
26487;BME280;14425;56.136;40.360;2023-02-28T03:37:55;99431.38;;;-6.48;81.42
26487;BME280;14425;56.136;40.360;2023-02-28T03:40:27;99417.72;;;-6.85;83.70
26487;BME280;14425;56.136;40.360;2023-02-28T03:43:02;99430.00;;;-7.37;85.49
26487;BME280;14425;56.136;40.360;2023-02-28T03:45:30;99426.59;;;-7.13;86.30
26487;BME280;14425;56.136;40.360;2023-02-28T03:48:06;99397.53;;;-6.69;85.36
26487;BME280;14425;56.136;40.360;2023-02-28T03:50:37;99375.66;;;-6.88;87.01
26487;BME280;14425;56.136;40.360;2023-02-28T03:55:45;99407.53;;;-6.78;85.19
26487;BME280;14425;56.136;40.360;2023-02-28T04:00:54;99376.31;;;-6.46;85.40
26487;BME280;14425;56.136;40.360;2023-02-28T04:03:21;99379.47;;;-6.91;83.81
26487;BME280;14425;56.136;40.360;2023-02-28T04:05:52;99392.81;;;-6.75;85.53
26487;BME280;14425;56.136;40.360;2023-02-28T04:08:18;99381.59;;;-7.20;87.50
26487;BME280;14425;56.136;40.360;2023-02-28T04:10:47;99388.38;;;-7.77;91.47
26487;BME280;14425;56.136;40.360;2023-02-28T04:13:14;99327.38;;;-7.11;90.59
26487;BME280;14425;56.136;40.360;2023-02-28T04:15:40;99382.13;;;-7.07;89.50
26487;BME280;14425;56.136;40.360;2023-02-28T04:18:06;99353.75;;;-6.64;85.94
26487;BME280;14425;56.136;40.360;2023-02-28T04:20:31;99347.81;;;-7.33;87.86
26487;BME280;14425;56.136;40.360;2023-02-28T04:22:57;99332.41;;;-7.02;88.35
26487;BME280;14425;56.136;40.360;2023-02-28T04:25:22;99373.38;;;-7.11;88.93
26487;BME280;14425;56.136;40.360;2023-02-28T04:27:48;99364.41;;;-7.09;85.79
26487;BME280;14425;56.136;40.360;2023-02-28T04:30:14;99326.50;;;-7.12;87.11
26487;BME280;14425;56.136;40.360;2023-02-28T04:32:39;99345.31;;;-7.24;86.37
26487;BME280;14425;56.136;40.360;2023-02-28T04:35:05;99330.69;;;-6.86;87.67
26487;BME280;14425;56.136;40.360;2023-02-28T04:37:30;99298.88;;;-7.71;88.75
26487;BME280;14425;56.136;40.360;2023-02-28T04:40:00;99311.19;;;-6.97;86.29
26487;BME280;14425;56.136;40.360;2023-02-28T04:42:26;99346.72;;;-7.10;87.84
26487;BME280;14425;56.136;40.360;2023-02-28T04:44:52;99310.06;;;-6.40;82.91
26487;BME280;14425;56.136;40.360;2023-02-28T04:47:17;99306.78;;;-6.91;82.48
26487;BME280;14425;56.136;40.360;2023-02-28T04:49:42;99299.88;;;-6.76;82.98
26487;BME280;14425;56.136;40.360;2023-02-28T04:52:08;99287.72;;;-7.57;87.53
26487;BME280;14425;56.136;40.360;2023-02-28T04:54:35;99275.06;;;-6.99;87.01
26487;BME280;14425;56.136;40.360;2023-02-28T04:57:00;99335.00;;;-6.41;83.76
26487;BME280;14425;56.136;40.360;2023-02-28T04:59:26;99284.97;;;-6.75;83.75
26487;BME280;14425;56.136;40.360;2023-02-28T05:01:52;99275.97;;;-6.55;81.92
26487;BME280;14425;56.136;40.360;2023-02-28T05:04:18;99279.03;;;-6.14;80.60
26487;BME280;14425;56.136;40.360;2023-02-28T05:06:43;99287.88;;;-6.18;78.72
26487;BME280;14425;56.136;40.360;2023-02-28T05:09:09;99255.16;;;-6.54;82.07
26487;BME280;14425;56.136;40.360;2023-02-28T05:11:37;99194.59;;;-5.86;78.70
26487;BME280;14425;56.136;40.360;2023-02-28T05:14:06;99214.19;;;-6.01;77.37
26487;BME280;14425;56.136;40.360;2023-02-28T05:16:32;99224.13;;;-6.28;78.33
26487;BME280;14425;56.136;40.360;2023-02-28T05:18:58;99191.88;;;-6.60;81.17
26487;BME280;14425;56.136;40.360;2023-02-28T05:21:28;99209.50;;;-6.33;78.59
26487;BME280;14425;56.136;40.360;2023-02-28T05:23:55;99239.06;;;-6.82;81.04
26487;BME280;14425;56.136;40.360;2023-02-28T05:26:22;99251.31;;;-6.42;81.53
26487;BME280;14425;56.136;40.360;2023-02-28T05:28:47;99224.38;;;-5.80;79.21
26487;BME280;14425;56.136;40.360;2023-02-28T05:31:13;99246.31;;;-6.94;80.33
26487;BME280;14425;56.136;40.360;2023-02-28T05:33:39;99237.72;;;-6.35;79.08
26487;BME280;14425;56.136;40.360;2023-02-28T05:36:05;99176.59;;;-6.27;80.50
26487;BME280;14425;56.136;40.360;2023-02-28T05:38:31;99184.13;;;-6.27;78.38
26487;BME280;14425;56.136;40.360;2023-02-28T05:40:56;99152.88;;;-6.03;77.06
26487;BME280;14425;56.136;40.360;2023-02-28T05:43:22;99179.41;;;-6.33;77.90
26487;BME280;14425;56.136;40.360;2023-02-28T05:45:48;99159.00;;;-6.81;80.19
26487;BME280;14425;56.136;40.360;2023-02-28T05:48:13;99166.22;;;-6.21;77.63
26487;BME280;14425;56.136;40.360;2023-02-28T05:50:39;99184.81;;;-6.19;76.32
26487;BME280;14425;56.136;40.360;2023-02-28T05:53:05;99182.56;;;-6.44;77.34
26487;BME280;14425;56.136;40.360;2023-02-28T05:55:30;99145.31;;;-6.30;76.06
26487;BME280;14425;56.136;40.360;2023-02-28T05:57:55;99159.03;;;-7.07;80.63
26487;BME280;14425;56.136;40.360;2023-02-28T06:00:21;99158.78;;;-6.47;78.96
26487;BME280;14425;56.136;40.360;2023-02-28T06:02:47;99114.16;;;-6.33;78.88
26487;BME280;14425;56.136;40.360;2023-02-28T06:05:15;99115.41;;;-5.25;73.94
26487;BME280;14425;56.136;40.360;2023-02-28T06:07:42;99093.75;;;-5.52;73.78
26487;BME280;14425;56.136;40.360;2023-02-28T06:10:09;99094.75;;;-4.54;69.00
26487;BME280;14425;56.136;40.360;2023-02-28T06:12:35;99113.97;;;-4.94;69.54
26487;BME280;14425;56.136;40.360;2023-02-28T06:15:00;99128.66;;;-4.98;68.32
26487;BME280;14425;56.136;40.360;2023-02-28T06:17:26;99072.25;;;-4.82;69.50
26487;BME280;14425;56.136;40.360;2023-02-28T06:19:51;99055.03;;;-4.37;66.71
26487;BME280;14425;56.136;40.360;2023-02-28T06:22:17;99075.72;;;-4.00;65.16
26487;BME280;14425;56.136;40.360;2023-02-28T06:24:42;99093.09;;;-4.03;64.64
26487;BME280;14425;56.136;40.360;2023-02-28T06:27:08;99078.28;;;-4.50;64.83
26487;BME280;14425;56.136;40.360;2023-02-28T06:29:34;99073.56;;;-4.27;65.98
26487;BME280;14425;56.136;40.360;2023-02-28T06:32:00;99041.63;;;-4.67;66.23
26487;BME280;14425;56.136;40.360;2023-02-28T06:34:26;99065.47;;;-4.83;65.57
26487;BME280;14425;56.136;40.360;2023-02-28T06:36:52;99058.97;;;-5.29;68.51
26487;BME280;14425;56.136;40.360;2023-02-28T06:39:18;98990.00;;;-4.83;68.45
26487;BME280;14425;56.136;40.360;2023-02-28T06:41:44;99020.13;;;-4.64;66.21
26487;BME280;14425;56.136;40.360;2023-02-28T06:44:15;99037.13;;;-4.51;65.00
26487;BME280;14425;56.136;40.360;2023-02-28T06:46:42;99006.06;;;-5.01;68.34
26487;BME280;14425;56.136;40.360;2023-02-28T06:49:09;99036.44;;;-5.08;69.67
26487;BME280;14425;56.136;40.360;2023-02-28T06:51:36;99002.91;;;-4.59;66.96
26487;BME280;14425;56.136;40.360;2023-02-28T06:54:02;98993.00;;;-4.87;67.57
26487;BME280;14425;56.136;40.360;2023-02-28T06:56:28;98986.59;;;-4.33;66.53
26487;BME280;14425;56.136;40.360;2023-02-28T06:58:54;98966.88;;;-4.78;67.60
26487;BME280;14425;56.136;40.360;2023-02-28T07:01:19;98970.53;;;-4.75;67.23
26487;BME280;14425;56.136;40.360;2023-02-28T07:03:46;98994.53;;;-4.78;69.13
26487;BME280;14425;56.136;40.360;2023-02-28T07:06:11;98980.25;;;-4.49;68.38
26487;BME280;14425;56.136;40.360;2023-02-28T07:08:37;99007.66;;;-4.72;67.12
26487;BME280;14425;56.136;40.360;2023-02-28T07:11:03;98965.53;;;-4.54;67.75
26487;BME280;14425;56.136;40.360;2023-02-28T07:13:29;98972.34;;;-4.12;66.52
26487;BME280;14425;56.136;40.360;2023-02-28T07:15:55;98947.28;;;-4.21;66.14
26487;BME280;14425;56.136;40.360;2023-02-28T07:18:21;98956.53;;;-3.58;64.67
26487;BME280;14425;56.136;40.360;2023-02-28T07:20:47;98943.03;;;-3.59;64.12
26487;BME280;14425;56.136;40.360;2023-02-28T07:23:12;98947.78;;;-3.41;64.62
26487;BME280;14425;56.136;40.360;2023-02-28T07:25:38;98943.72;;;-3.82;63.97
26487;BME280;14425;56.136;40.360;2023-02-28T07:28:04;98936.88;;;-3.62;64.46
26487;BME280;14425;56.136;40.360;2023-02-28T07:30:30;98919.84;;;-3.55;64.46
26487;BME280;14425;56.136;40.360;2023-02-28T07:32:56;98918.47;;;-3.61;63.60
26487;BME280;14425;56.136;40.360;2023-02-28T07:35:22;98920.41;;;-2.92;63.37
26487;BME280;14425;56.136;40.360;2023-02-28T07:37:47;98904.34;;;-2.83;62.48
26487;BME280;14425;56.136;40.360;2023-02-28T07:40:13;98907.97;;;-2.79;62.52
26487;BME280;14425;56.136;40.360;2023-02-28T07:42:40;98944.56;;;-3.61;63.00
26487;BME280;14425;56.136;40.360;2023-02-28T07:45:07;98914.84;;;-3.65;64.88
26487;BME280;14425;56.136;40.360;2023-02-28T07:47:33;98908.34;;;-2.97;62.98
26487;BME280;14425;56.136;40.360;2023-02-28T07:49:59;98940.47;;;-2.94;61.79
26487;BME280;14425;56.136;40.360;2023-02-28T07:52:24;98932.91;;;-3.16;62.36
26487;BME280;14425;56.136;40.360;2023-02-28T07:54:50;98881.19;;;-3.11;63.30
26487;BME280;14425;56.136;40.360;2023-02-28T07:57:16;98886.19;;;-3.55;64.50
26487;BME280;14425;56.136;40.360;2023-02-28T07:59:42;98930.28;;;-3.60;65.66
26487;BME280;14425;56.136;40.360;2023-02-28T08:02:13;98868.09;;;-4.14;67.63
26487;BME280;14425;56.136;40.360;2023-02-28T08:04:39;98870.53;;;-3.51;67.32
26487;BME280;14425;56.136;40.360;2023-02-28T08:07:04;98867.44;;;-2.92;64.47
26487;BME280;14425;56.136;40.360;2023-02-28T08:09:30;98887.00;;;-3.12;64.72
26487;BME280;14425;56.136;40.360;2023-02-28T08:11:55;98865.63;;;-2.83;64.44
26487;BME280;14425;56.136;40.360;2023-02-28T08:14:21;98862.94;;;-2.97;64.18
26487;BME280;14425;56.136;40.360;2023-02-28T08:16:46;98859.59;;;-2.85;65.09
26487;BME280;14425;56.136;40.360;2023-02-28T08:19:12;98890.41;;;-3.11;64.50
26487;BME280;14425;56.136;40.360;2023-02-28T08:21:37;98892.03;;;-2.56;63.81
26487;BME280;14425;56.136;40.360;2023-02-28T08:24:03;98863.41;;;-2.90;65.04
26487;BME280;14425;56.136;40.360;2023-02-28T08:26:29;98862.66;;;-2.44;64.45
26487;BME280;14425;56.136;40.360;2023-02-28T08:28:54;98862.38;;;-1.77;62.49
26487;BME280;14425;56.136;40.360;2023-02-28T08:31:20;98864.53;;;-2.75;65.71
26487;BME280;14425;56.136;40.360;2023-02-28T08:33:46;98865.59;;;-2.49;65.37
26487;BME280;14425;56.136;40.360;2023-02-28T08:36:13;98839.19;;;-1.95;64.04
26487;BME280;14425;56.136;40.360;2023-02-28T08:38:40;98876.75;;;-2.12;63.47
26487;BME280;14425;56.136;40.360;2023-02-28T08:41:08;98869.75;;;-2.04;63.72
26487;BME280;14425;56.136;40.360;2023-02-28T08:43:34;98852.91;;;-1.92;63.48
26487;BME280;14425;56.136;40.360;2023-02-28T08:46:00;98828.34;;;-1.45;61.77
26487;BME280;14425;56.136;40.360;2023-02-28T08:48:28;98855.88;;;-1.74;61.53
26487;BME280;14425;56.136;40.360;2023-02-28T08:51:02;98830.97;;;-1.44;61.57
26487;BME280;14425;56.136;40.360;2023-02-28T08:53:28;98805.66;;;-1.93;62.92
26487;BME280;14425;56.136;40.360;2023-02-28T08:56:03;98820.59;;;-1.72;61.89
26487;BME280;14425;56.136;40.360;2023-02-28T08:58:29;98840.66;;;-1.50;62.41
26487;BME280;14425;56.136;40.360;2023-02-28T09:00:55;98817.50;;;-1.68;62.68
26487;BME280;14425;56.136;40.360;2023-02-28T09:03:21;98832.78;;;-1.78;63.36
26487;BME280;14425;56.136;40.360;2023-02-28T09:05:56;98825.44;;;-1.87;65.00
26487;BME280;14425;56.136;40.360;2023-02-28T09:08:24;98811.19;;;-2.34;66.53
26487;BME280;14425;56.136;40.360;2023-02-28T09:10:50;98812.44;;;-2.63;68.04
26487;BME280;14425;56.136;40.360;2023-02-28T09:13:16;98813.94;;;-2.31;67.37
26487;BME280;14425;56.136;40.360;2023-02-28T09:15:42;98824.81;;;-2.66;68.19
26487;BME280;14425;56.136;40.360;2023-02-28T09:18:07;98838.09;;;-2.80;69.30
26487;BME280;14425;56.136;40.360;2023-02-28T09:20:33;98829.09;;;-2.19;67.52
26487;BME280;14425;56.136;40.360;2023-02-28T09:22:59;98778.94;;;-1.65;65.55
26487;BME280;14425;56.136;40.360;2023-02-28T09:25:24;98808.44;;;-2.13;66.48
26487;BME280;14425;56.136;40.360;2023-02-28T09:27:50;98824.44;;;-2.48;67.43
26487;BME280;14425;56.136;40.360;2023-02-28T09:30:16;98842.91;;;-1.90;66.05
26487;BME280;14425;56.136;40.360;2023-02-28T09:32:41;98761.19;;;-1.91;66.81
26487;BME280;14425;56.136;40.360;2023-02-28T09:35:07;98767.31;;;-1.87;65.78
26487;BME280;14425;56.136;40.360;2023-02-28T09:37:38;98760.31;;;-2.15;66.30
26487;BME280;14425;56.136;40.360;2023-02-28T09:40:04;98760.88;;;-2.54;70.23
26487;BME280;14425;56.136;40.360;2023-02-28T09:42:32;98738.59;;;-2.60;70.32
26487;BME280;14425;56.136;40.360;2023-02-28T09:45:00;98748.78;;;-2.23;69.10
26487;BME280;14425;56.136;40.360;2023-02-28T09:48:03;98754.81;;;-1.97;69.35
26487;BME280;14425;56.136;40.360;2023-02-28T09:52:53;98777.19;;;-1.78;66.93
26487;BME280;14425;56.136;40.360;2023-02-28T09:55:30;98774.00;;;-1.76;66.98
26487;BME280;14425;56.136;40.360;2023-02-28T09:57:58;98764.63;;;-2.26;69.50
26487;BME280;14425;56.136;40.360;2023-02-28T10:00:36;98745.50;;;-2.57;71.27
26487;BME280;14425;56.136;40.360;2023-02-28T10:03:26;98751.66;;;-2.18;71.38
26487;BME280;14425;56.136;40.360;2023-02-28T10:06:01;98729.31;;;-1.89;69.80
26487;BME280;14425;56.136;40.360;2023-02-28T10:08:37;98744.06;;;-2.66;73.04
26487;BME280;14425;56.136;40.360;2023-02-28T10:11:13;98727.56;;;-2.01;72.63
26487;BME280;14425;56.136;40.360;2023-02-28T10:19:27;98728.81;;;-2.32;75.55
26487;BME280;14425;56.136;40.360;2023-02-28T10:22:05;98713.53;;;-2.92;78.33
26487;BME280;14425;56.136;40.360;2023-02-28T10:24:35;98717.34;;;-2.03;75.85
26487;BME280;14425;56.136;40.360;2023-02-28T10:29:47;98708.94;;;-2.15;76.07
26487;BME280;14425;56.136;40.360;2023-02-28T10:32:17;98694.00;;;-2.12;76.53
26487;BME280;14425;56.136;40.360;2023-02-28T10:34:43;98700.94;;;-1.84;74.83
26487;BME280;14425;56.136;40.360;2023-02-28T10:37:10;98674.94;;;-1.95;74.70
26487;BME280;14425;56.136;40.360;2023-02-28T10:39:41;98702.34;;;-2.25;76.25
26487;BME280;14425;56.136;40.360;2023-02-28T10:42:28;98700.63;;;-2.01;76.65
26487;BME280;14425;56.136;40.360;2023-02-28T10:45:15;98689.28;;;-1.82;75.33
26487;BME280;14425;56.136;40.360;2023-02-28T10:48:47;98682.91;;;-1.77;74.95
26487;BME280;14425;56.136;40.360;2023-02-28T10:58:34;98651.41;;;-1.94;80.57
26487;BME280;14425;56.136;40.360;2023-02-28T11:01:16;98656.06;;;-2.00;80.40
26487;BME280;14425;56.136;40.360;2023-02-28T11:03:42;98659.72;;;-1.58;77.08
26487;BME280;14425;56.136;40.360;2023-02-28T11:06:14;98642.63;;;-1.88;77.08
26487;BME280;14425;56.136;40.360;2023-02-28T11:08:50;98672.41;;;-1.95;78.37
26487;BME280;14425;56.136;40.360;2023-02-28T11:11:17;98666.22;;;-1.62;77.05
26487;BME280;14425;56.136;40.360;2023-02-28T11:13:45;98646.38;;;-1.69;76.41
26487;BME280;14425;56.136;40.360;2023-02-28T11:16:13;98674.41;;;-1.66;75.79
26487;BME280;14425;56.136;40.360;2023-02-28T11:18:49;98649.47;;;-1.73;77.20
26487;BME280;14425;56.136;40.360;2023-02-28T11:21:36;98653.56;;;-2.12;79.65
26487;BME280;14425;56.136;40.360;2023-02-28T11:24:25;98667.44;;;-2.31;81.41
26487;BME280;14425;56.136;40.360;2023-02-28T11:26:52;98613.97;;;-1.75;79.40
26487;BME280;14425;56.136;40.360;2023-02-28T11:29:42;98682.75;;;-1.67;76.92
26487;BME280;14425;56.136;40.360;2023-02-28T11:32:28;98641.09;;;-1.97;79.18
26487;BME280;14425;56.136;40.360;2023-02-28T11:37:36;98642.53;;;-2.01;79.67
26487;BME280;14425;56.136;40.360;2023-02-28T11:40:08;98636.28;;;-1.69;79.84
26487;BME280;14425;56.136;40.360;2023-02-28T11:43:16;98623.84;;;-1.66;78.32
26487;BME280;14425;56.136;40.360;2023-02-28T11:50:52;98641.28;;;-1.82;81.65
26487;BME280;14425;56.136;40.360;2023-02-28T11:56:15;98654.09;;;-1.79;80.97
26487;BME280;14425;56.136;40.360;2023-02-28T12:04:51;98625.78;;;-1.87;82.93
26487;BME280;14425;56.136;40.360;2023-02-28T12:10:34;98615.72;;;-1.99;87.00
26487;BME280;14425;56.136;40.360;2023-02-28T12:18:24;98579.63;;;-1.59;82.75
26487;BME280;14425;56.136;40.360;2023-02-28T12:21:08;98576.47;;;-1.69;83.61
26487;BME280;14425;56.136;40.360;2023-02-28T12:26:40;98577.78;;;-2.12;87.53
26487;BME280;14425;56.136;40.360;2023-02-28T12:29:14;98587.81;;;-1.75;84.53
26487;BME280;14425;56.136;40.360;2023-02-28T12:31:48;98564.31;;;-1.74;84.63
26487;BME280;14425;56.136;40.360;2023-02-28T12:34:38;98559.66;;;-1.93;85.72
26487;BME280;14425;56.136;40.360;2023-02-28T12:37:10;98543.53;;;-2.20;87.86
26487;BME280;14425;56.136;40.360;2023-02-28T12:39:45;98588.66;;;-2.13;84.94
26487;BME280;14425;56.136;40.360;2023-02-28T12:42:24;98539.50;;;-1.80;84.19
26487;BME280;14425;56.136;40.360;2023-02-28T12:47:20;98533.25;;;-1.85;83.88
26487;BME280;14425;56.136;40.360;2023-02-28T12:49:53;98542.94;;;-1.66;82.31
26487;BME280;14425;56.136;40.360;2023-02-28T12:55:16;98510.00;;;-1.93;84.49
26487;BME280;14425;56.136;40.360;2023-02-28T12:57:52;98543.59;;;-1.69;82.64
26487;BME280;14425;56.136;40.360;2023-02-28T13:00:25;98526.41;;;-1.74;83.54
26487;BME280;14425;56.136;40.360;2023-02-28T13:10:45;98510.84;;;-1.54;81.31
26487;BME280;14425;56.136;40.360;2023-02-28T13:13:15;98547.78;;;-1.69;83.15
26487;BME280;14425;56.136;40.360;2023-02-28T13:16:07;98533.38;;;-1.70;82.33
26487;BME280;14425;56.136;40.360;2023-02-28T13:18:34;98531.81;;;-1.68;82.99
26487;BME280;14425;56.136;40.360;2023-02-28T13:21:07;98538.66;;;-1.67;82.33
26487;BME280;14425;56.136;40.360;2023-02-28T13:24:02;98538.94;;;-1.76;82.96
26487;BME280;14425;56.136;40.360;2023-02-28T13:34:37;98517.28;;;-1.59;83.38
26487;BME280;14425;56.136;40.360;2023-02-28T13:39:50;98506.41;;;-1.44;82.68
26487;BME280;14425;56.136;40.360;2023-02-28T13:55:38;98511.81;;;-1.65;86.58
26487;BME280;14425;56.136;40.360;2023-02-28T13:58:32;98505.59;;;-1.70;86.98
26487;BME280;14425;56.136;40.360;2023-02-28T14:06:35;98494.09;;;-1.78;90.37
26487;BME280;14425;56.136;40.360;2023-02-28T14:11:39;98478.75;;;-1.55;90.05
26487;BME280;14425;56.136;40.360;2023-02-28T14:14:07;98493.72;;;-1.71;91.11
26487;BME280;14425;56.136;40.360;2023-02-28T14:16:39;98477.56;;;-1.73;91.56
26487;BME280;14425;56.136;40.360;2023-02-28T14:19:27;98480.31;;;-1.57;92.68
26487;BME280;14425;56.136;40.360;2023-02-28T14:22:14;98488.53;;;-1.86;95.30
26487;BME280;14425;56.136;40.360;2023-02-28T14:25:05;98497.13;;;-1.84;96.00
26487;BME280;14425;56.136;40.360;2023-02-28T14:38:29;98475.63;;;-1.77;96.56
26487;BME280;14425;56.136;40.360;2023-02-28T14:40:58;98457.75;;;-1.80;96.00
26487;BME280;14425;56.136;40.360;2023-02-28T14:43:27;98450.81;;;-1.83;96.05
26487;BME280;14425;56.136;40.360;2023-02-28T14:45:56;98474.69;;;-1.66;95.24
26487;BME280;14425;56.136;40.360;2023-02-28T14:48:22;98453.94;;;-1.87;97.26
26487;BME280;14425;56.136;40.360;2023-02-28T14:50:55;98458.22;;;-1.73;96.24
26487;BME280;14425;56.136;40.360;2023-02-28T14:53:24;98454.78;;;-2.00;97.26
26487;BME280;14425;56.136;40.360;2023-02-28T14:55:50;98467.41;;;-2.00;98.24
26487;BME280;14425;56.136;40.360;2023-02-28T14:58:28;98444.16;;;-1.69;95.99
26487;BME280;14425;56.136;40.360;2023-02-28T15:00:56;98451.53;;;-1.86;96.84
26487;BME280;14425;56.136;40.360;2023-02-28T15:03:38;98456.88;;;-1.68;95.64
26487;BME280;14425;56.136;40.360;2023-02-28T15:06:13;98481.97;;;-1.71;94.37
26487;BME280;14425;56.136;40.360;2023-02-28T15:08:39;98453.75;;;-1.63;94.86
26487;BME280;14425;56.136;40.360;2023-02-28T15:11:08;98447.84;;;-1.77;95.05
26487;BME280;14425;56.136;40.360;2023-02-28T15:13:43;98452.28;;;-1.73;95.70
26487;BME280;14425;56.136;40.360;2023-02-28T15:16:22;98429.94;;;-1.54;93.31
26487;BME280;14425;56.136;40.360;2023-02-28T15:18:53;98482.22;;;-1.79;94.57